createdAt,value
2022-09-15T00:01:10.465Z,3.70
2022-09-15T00:03:37.946Z,3.97
2022-09-15T00:06:05.686Z,3.85
2022-09-15T00:08:33.165Z,3.92
2022-09-15T00:11:24.631Z,4.50
2022-09-15T00:13:52.823Z,4.30
2022-09-15T00:16:21.699Z,4.05
2022-09-15T00:18:49.526Z,4.30
2022-09-15T00:21:20.866Z,3.60
2022-09-15T00:23:48.646Z,3.63
2022-09-15T00:26:19.243Z,4.30
2022-09-15T00:28:46.712Z,3.60
2022-09-15T00:31:16.931Z,3.80
2022-09-15T00:33:50.607Z,3.67
2022-09-15T00:36:18.826Z,4.20
2022-09-15T00:38:46.126Z,4.13
2022-09-15T00:41:16.987Z,3.70
2022-09-15T00:43:59.495Z,4.07
2022-09-15T00:46:30.426Z,4.53
2022-09-15T00:49:09.369Z,4.15
2022-09-15T00:51:45.861Z,3.67
2022-09-15T00:54:19.025Z,4.38
2022-09-15T00:56:50.311Z,4.00
2022-09-15T00:59:21.731Z,4.15
2022-09-15T01:01:55.373Z,3.70
2022-09-15T01:04:22.786Z,3.83
2022-09-15T01:06:55.636Z,3.92
2022-09-15T01:09:25.041Z,4.30
2022-09-15T01:11:52.145Z,4.00
2022-09-15T01:14:19.370Z,4.05
2022-09-15T01:17:27.525Z,4.57
2022-09-15T01:20:10.631Z,4.07
2022-09-15T01:23:11.690Z,3.95
2022-09-15T01:26:09.305Z,3.60
2022-09-15T01:28:39.265Z,3.83
2022-09-15T01:32:11.236Z,3.90
2022-09-15T01:34:46.681Z,3.88
2022-09-15T01:37:19.130Z,3.90
2022-09-15T01:39:48.407Z,3.80
2022-09-15T01:42:17.241Z,3.80
2022-09-15T01:45:14.487Z,3.85
2022-09-15T01:47:42.256Z,4.20
2022-09-15T01:50:10.857Z,3.80
2022-09-15T01:52:43.156Z,4.00
2022-09-15T01:55:18.536Z,4.25
2022-09-15T01:57:45.731Z,4.55
2022-09-15T02:00:13.193Z,4.80
2022-09-15T02:02:46.546Z,4.50
2022-09-15T02:05:25.476Z,3.50
2022-09-15T02:08:25.297Z,3.97
2022-09-15T02:11:12.126Z,4.38
2022-09-15T02:13:48.885Z,3.65
2022-09-15T02:16:22.384Z,4.10
2022-09-15T02:19:09.857Z,3.88
2022-09-15T02:22:01.228Z,4.10
2022-09-15T02:24:36.292Z,3.80
2022-09-15T02:27:05.911Z,4.00
2022-09-15T02:29:36.381Z,4.45
2022-09-15T02:32:07.243Z,3.72
2022-09-15T02:34:40.595Z,4.15
2022-09-15T02:37:09.852Z,4.70
2022-09-15T02:39:41.366Z,4.82
2022-09-15T02:42:09.445Z,4.90
2022-09-15T02:44:37.661Z,4.57
2022-09-15T02:47:04.831Z,4.68
2022-09-15T02:49:31.826Z,4.50
2022-09-15T02:51:58.896Z,4.13
2022-09-15T02:54:25.917Z,4.40
2022-09-15T02:56:52.996Z,4.85
2022-09-15T02:59:20.033Z,4.20
2022-09-15T03:01:47.247Z,4.80
2022-09-15T03:04:14.461Z,5.75
2022-09-15T03:06:41.453Z,5.50
2022-09-15T03:09:08.745Z,5.20
2022-09-15T03:11:36.736Z,4.35
2022-09-15T03:14:06.156Z,4.88
2022-09-15T03:16:35.231Z,5.22
2022-09-15T03:19:03.826Z,5.15
2022-09-15T03:21:33.225Z,5.15
2022-09-15T03:24:00.765Z,5.30
2022-09-15T03:26:28.002Z,5.38
2022-09-15T03:28:55.093Z,5.35
2022-09-15T03:31:22.382Z,5.40
2022-09-15T03:33:49.816Z,5.20
2022-09-15T03:36:16.885Z,4.82
2022-09-15T03:38:43.987Z,5.18
2022-09-15T03:41:12.818Z,4.85
2022-09-15T03:43:40.026Z,5.13
2022-09-15T03:46:08.848Z,4.57
2022-09-15T03:48:42.792Z,4.90
2022-09-15T03:51:10.912Z,4.03
2022-09-15T03:53:40.345Z,4.35
2022-09-15T03:56:31.650Z,4.28
2022-09-15T03:58:59.667Z,4.05
2022-09-15T04:01:27.199Z,4.13
2022-09-15T04:03:54.811Z,3.95
2022-09-15T04:06:23.236Z,3.80
2022-09-15T04:08:51.187Z,4.22
2022-09-15T04:11:19.876Z,3.92
2022-09-15T04:13:47.341Z,4.55
2022-09-15T04:16:17.759Z,4.45
2022-09-15T04:18:45.104Z,3.90
2022-09-15T04:21:14.536Z,4.32
2022-09-15T04:23:44.295Z,4.53
2022-09-15T04:26:29.102Z,4.05
2022-09-15T04:28:57.382Z,4.85
2022-09-15T04:31:26.735Z,4.55
2022-09-15T04:33:55.945Z,4.53
2022-09-15T04:36:25.436Z,10.40
2022-09-15T04:38:53.050Z,6.50
2022-09-15T04:41:21.023Z,5.63
2022-09-15T04:43:48.327Z,5.20
2022-09-15T04:46:16.855Z,5.00
2022-09-15T04:48:46.230Z,5.03
2022-09-15T04:51:19.399Z,5.32
2022-09-15T04:53:47.177Z,4.43
2022-09-15T04:56:17.376Z,4.38
2022-09-15T04:58:47.305Z,4.65
2022-09-15T05:01:19.225Z,4.32
2022-09-15T05:03:46.678Z,4.30
2022-09-15T05:06:19.250Z,4.40
2022-09-15T05:08:55.130Z,4.40
2022-09-15T05:11:23.035Z,5.20
2022-09-15T05:13:50.631Z,4.97
2022-09-15T05:16:20.585Z,5.03
2022-09-15T05:18:49.416Z,4.85
2022-09-15T05:21:18.741Z,4.53
2022-09-15T05:23:46.600Z,4.82
2022-09-15T05:26:15.876Z,4.82
2022-09-15T05:28:43.055Z,5.13
2022-09-15T05:31:12.800Z,5.18
2022-09-15T05:33:40.221Z,5.60
2022-09-15T05:36:07.640Z,5.13
2022-09-15T05:38:34.691Z,5.28
2022-09-15T05:41:07.478Z,4.82
2022-09-15T05:43:36.779Z,4.80
2022-09-15T05:46:05.032Z,4.20
2022-09-15T05:48:32.446Z,3.35
2022-09-15T05:50:59.844Z,3.63
2022-09-15T05:53:27.876Z,4.45
2022-09-15T05:55:59.568Z,3.95
2022-09-15T05:58:27.711Z,4.57
2022-09-15T06:00:55.721Z,4.68
2022-09-15T06:03:28.712Z,4.50
2022-09-15T06:06:01.862Z,4.40
2022-09-15T06:08:34.451Z,4.45
2022-09-15T06:11:05.670Z,6.93
2022-09-15T06:13:33.136Z,6.13
2022-09-15T06:16:14.601Z,5.70
2022-09-15T06:18:42.286Z,5.07
2022-09-15T06:21:18.566Z,6.53
2022-09-15T06:23:50.527Z,5.22
2022-09-15T06:26:19.114Z,4.85
2022-09-15T06:28:51.596Z,4.38
2022-09-15T06:31:19.318Z,5.57
2022-09-15T06:33:49.122Z,5.10
2022-09-15T06:36:16.571Z,5.43
2022-09-15T06:38:44.577Z,5.32
2022-09-15T06:41:12.366Z,5.40
2022-09-15T06:43:39.805Z,3.97
2022-09-15T06:46:20.779Z,4.13
2022-09-15T06:48:48.764Z,3.58
2022-09-15T06:51:17.307Z,5.65
2022-09-15T06:53:44.638Z,4.57
2022-09-15T06:56:13.926Z,5.50
2022-09-15T06:58:42.643Z,5.78
2022-09-15T07:01:19.010Z,3.70
2022-09-15T07:03:46.186Z,4.43
2022-09-15T07:06:13.716Z,4.75
2022-09-15T07:08:43.725Z,4.35
2022-09-15T07:11:11.176Z,4.40
2022-09-15T07:13:38.744Z,4.53
2022-09-15T07:16:07.657Z,3.55
2022-09-15T07:18:39.681Z,8.90
2022-09-15T07:21:13.183Z,5.45
2022-09-15T07:23:40.386Z,5.25
2022-09-15T07:26:11.636Z,4.50
2022-09-15T07:28:40.021Z,4.40
2022-09-15T07:31:11.555Z,5.75
2022-09-15T07:33:38.816Z,5.15
2022-09-15T07:36:07.897Z,4.10
2022-09-15T07:38:50.527Z,4.10
2022-09-15T07:41:23.361Z,3.67
2022-09-15T07:43:55.406Z,3.85
2022-09-15T07:46:24.683Z,3.50
2022-09-15T07:48:54.721Z,3.40
2022-09-15T07:51:22.316Z,3.85
2022-09-15T07:53:51.066Z,4.22
2022-09-15T07:56:19.006Z,4.75
2022-09-15T07:58:47.247Z,3.40
2022-09-15T08:01:15.328Z,3.70
2022-09-15T08:03:45.500Z,4.07
2022-09-15T08:06:13.684Z,4.00
2022-09-15T08:08:41.699Z,4.28
2022-09-15T08:11:14.046Z,3.78
2022-09-15T08:13:43.421Z,4.28
2022-09-15T08:16:12.953Z,4.13
2022-09-15T08:18:42.390Z,4.88
2022-09-15T08:21:12.936Z,4.90
2022-09-15T08:23:40.355Z,4.65
2022-09-15T08:26:13.593Z,4.88
2022-09-15T08:28:44.530Z,4.78
2022-09-15T08:31:14.178Z,4.50
2022-09-15T08:33:45.685Z,4.53
2022-09-15T08:36:13.476Z,5.40
2022-09-15T08:38:42.082Z,3.55
2022-09-15T08:41:45.801Z,3.88
2022-09-15T08:44:36.422Z,4.05
2022-09-15T08:47:33.683Z,3.72
2022-09-15T08:50:20.640Z,4.10
2022-09-15T08:53:03.306Z,4.35
2022-09-15T08:55:36.846Z,3.92
2022-09-15T08:58:11.826Z,4.03
2022-09-15T09:00:41.079Z,3.67
2022-09-15T09:03:42.290Z,3.95
2022-09-15T09:06:34.940Z,3.80
2022-09-15T09:09:23.045Z,3.63
2022-09-15T09:12:14.060Z,4.43
2022-09-15T09:14:44.081Z,4.53
2022-09-15T09:17:32.255Z,4.07
2022-09-15T09:20:17.032Z,4.03
2022-09-15T09:22:46.240Z,3.50
2022-09-15T09:25:28.378Z,4.20
2022-09-15T09:27:58.510Z,4.78
2022-09-15T09:30:29.772Z,4.28
2022-09-15T09:33:15.336Z,4.45
2022-09-15T09:35:54.267Z,4.35
2022-09-15T09:38:43.330Z,4.38
2022-09-15T09:41:36.006Z,5.07
2022-09-15T09:44:12.688Z,5.60
2022-09-15T09:46:39.894Z,4.60
2022-09-15T09:49:27.167Z,5.10
2022-09-15T09:51:56.334Z,4.82
2022-09-15T09:54:27.321Z,4.55
2022-09-15T09:56:56.115Z,4.15
2022-09-15T09:59:43.341Z,4.50
2022-09-15T10:02:15.870Z,4.60
2022-09-15T10:04:50.694Z,4.50
2022-09-15T10:07:21.254Z,3.92
2022-09-15T10:09:57.426Z,3.47
2022-09-15T10:12:34.254Z,4.10
2022-09-15T10:15:04.586Z,3.83
2022-09-15T10:17:39.997Z,3.40
2022-09-15T10:20:22.843Z,4.00
2022-09-15T10:22:50.421Z,3.72
2022-09-15T10:25:20.469Z,3.53
2022-09-15T10:28:15.515Z,3.50
2022-09-15T10:31:04.846Z,3.73
2022-09-15T10:33:45.018Z,3.45
2022-09-15T10:36:34.311Z,3.80
2022-09-15T10:39:37.531Z,3.78
2022-09-15T10:42:09.835Z,3.85
2022-09-15T10:44:55.386Z,3.70
2022-09-15T10:51:01.509Z,3.83
2022-09-15T10:53:31.035Z,4.13
2022-09-15T10:56:11.065Z,3.70
2022-09-15T10:59:19.137Z,3.75
2022-09-15T11:02:13.335Z,3.80
2022-09-15T11:04:57.840Z,3.65
2022-09-15T11:08:02.006Z,3.35
2022-09-15T11:10:54.385Z,3.40
2022-09-15T11:13:42.396Z,3.10
2022-09-15T11:16:27.221Z,3.00
2022-09-15T11:19:21.651Z,3.03
2022-09-15T11:21:58.226Z,3.08
2022-09-15T11:24:59.981Z,2.80
2022-09-15T11:27:41.362Z,3.00
2022-09-15T11:30:20.931Z,3.53
2022-09-15T11:33:24.155Z,3.63
2022-09-15T11:36:11.684Z,3.63
2022-09-15T11:38:54.183Z,3.67
2022-09-15T11:41:38.461Z,3.50
2022-09-15T11:44:22.942Z,3.40
2022-09-15T11:47:13.126Z,4.28
2022-09-15T11:49:55.322Z,4.43
2022-09-15T11:52:44.991Z,4.10
2022-09-15T11:55:23.345Z,4.95
2022-09-15T11:58:17.385Z,4.10
2022-09-15T12:01:07.855Z,3.92
2022-09-15T12:03:55.276Z,4.28
2022-09-15T12:06:29.905Z,4.07
2022-09-15T12:09:00.963Z,4.43
2022-09-15T12:11:31.561Z,4.00
2022-09-15T12:14:00.156Z,4.63
2022-09-15T12:16:28.325Z,4.38
2022-09-15T12:19:01.607Z,3.90
2022-09-15T12:22:03.836Z,3.10
2022-09-15T12:24:46.026Z,3.58
2022-09-15T12:27:18.046Z,3.58
2022-09-15T12:30:00.228Z,3.60
2022-09-15T12:32:32.085Z,3.40
2022-09-15T12:35:18.731Z,3.40
2022-09-15T12:37:59.876Z,3.17
2022-09-15T12:40:38.034Z,4.70
2022-09-15T12:43:13.785Z,3.80
2022-09-15T12:45:52.362Z,3.60
2022-09-15T12:48:22.861Z,3.85
2022-09-15T12:51:05.365Z,3.72
2022-09-15T12:53:52.361Z,3.45
2022-09-15T12:56:25.621Z,3.35
2022-09-15T12:58:53.530Z,3.33
2022-09-15T13:01:23.696Z,3.53
2022-09-15T13:03:51.004Z,3.60
2022-09-15T13:06:23.505Z,3.97
2022-09-15T13:09:02.471Z,3.03
2022-09-15T13:11:38.291Z,4.22
2022-09-15T13:14:08.304Z,3.08
2022-09-15T13:16:48.100Z,3.63
2022-09-15T13:19:24.040Z,3.35
2022-09-15T13:22:06.566Z,3.38
2022-09-15T13:24:47.736Z,3.30
2022-09-15T13:27:19.777Z,3.47
2022-09-15T13:29:52.051Z,3.33
2022-09-15T13:32:40.700Z,3.60
2022-09-15T13:35:37.376Z,4.05
2022-09-15T13:38:31.860Z,3.95
2022-09-15T13:41:02.220Z,4.45
2022-09-15T13:43:48.382Z,5.00
2022-09-15T13:46:34.097Z,4.78
2022-09-15T13:49:35.891Z,4.75
2022-09-15T13:52:23.460Z,4.40
2022-09-15T13:55:12.831Z,4.50
2022-09-15T14:00:34.209Z,3.90
2022-09-15T14:03:09.800Z,3.95
2022-09-15T14:05:37.595Z,4.05
2022-09-15T14:08:17.256Z,4.22
2022-09-15T14:11:04.491Z,4.20
2022-09-15T14:13:32.008Z,3.78
2022-09-15T14:16:19.568Z,4.75
2022-09-15T14:18:47.217Z,4.57
2022-09-15T14:21:20.036Z,4.55
2022-09-15T14:23:48.941Z,4.47
2022-09-15T14:26:18.181Z,4.85
2022-09-15T14:28:52.261Z,4.65
2022-09-15T14:31:29.026Z,4.60
2022-09-15T14:33:56.167Z,4.47
2022-09-15T14:36:30.251Z,4.75
2022-09-15T14:39:26.715Z,5.80
2022-09-15T14:41:54.053Z,4.95
2022-09-15T14:47:26.821Z,4.38
2022-09-15T14:50:29.113Z,4.72
2022-09-15T14:53:18.245Z,4.55
2022-09-15T14:56:07.648Z,4.30
2022-09-15T14:58:52.054Z,4.78
2022-09-15T15:01:48.729Z,4.47
2022-09-15T15:04:40.767Z,4.90
2022-09-15T15:07:24.016Z,4.05
2022-09-15T15:09:56.525Z,4.35
2022-09-15T15:12:30.716Z,4.60
2022-09-15T15:14:59.185Z,4.07
2022-09-15T15:17:44.317Z,4.03
2022-09-15T15:20:11.249Z,4.07
2022-09-15T15:22:39.330Z,4.38
2022-09-15T15:25:28.126Z,4.38
2022-09-15T15:27:55.825Z,3.88
2022-09-15T15:30:31.578Z,4.05
2022-09-15T15:33:01.326Z,4.60
2022-09-15T15:35:30.142Z,4.82
2022-09-15T15:38:05.231Z,4.47
2022-09-15T15:43:24.268Z,3.80
2022-09-15T15:45:58.041Z,3.63
2022-09-15T15:48:37.376Z,3.50
2022-09-15T15:51:06.902Z,2.70
2022-09-15T15:53:34.561Z,3.20
2022-09-15T15:56:01.940Z,3.40
2022-09-15T15:58:28.927Z,3.20
2022-09-15T16:00:57.223Z,3.20
2022-09-15T16:03:24.940Z,2.97
2022-09-15T16:05:54.460Z,3.22
2022-09-15T16:08:34.991Z,3.08
2022-09-15T16:11:03.039Z,3.25
2022-09-15T16:13:30.796Z,2.85
2022-09-15T16:16:00.604Z,3.20
2022-09-15T16:18:28.861Z,3.55
2022-09-15T16:20:55.906Z,3.70
2022-09-15T16:23:23.386Z,3.45
2022-09-15T16:25:55.419Z,3.60
2022-09-15T16:28:22.395Z,3.45
2022-09-15T16:30:50.786Z,2.88
2022-09-15T16:33:19.035Z,3.42
2022-09-15T16:35:55.854Z,2.95
2022-09-15T16:38:26.072Z,3.13
2022-09-15T16:40:53.273Z,3.17
2022-09-15T16:43:22.395Z,3.92
2022-09-15T16:45:50.805Z,3.50
2022-09-15T16:48:18.660Z,3.35
2022-09-15T16:51:23.034Z,3.20
2022-09-15T16:53:33.856Z,3.28
2022-09-15T16:56:00.925Z,3.50
2022-09-15T16:58:28.212Z,3.10
2022-09-15T17:00:56.155Z,2.90
2022-09-15T17:03:24.666Z,3.10
2022-09-15T17:05:54.041Z,3.42
2022-09-15T17:08:24.146Z,3.40
2022-09-15T17:10:53.129Z,2.72
2022-09-15T17:13:27.800Z,3.15
2022-09-15T17:15:58.649Z,3.85
2022-09-15T17:18:26.206Z,3.53
2022-09-15T17:20:53.479Z,3.17
2022-09-15T17:23:31.184Z,3.28
2022-09-15T17:26:00.500Z,3.38
2022-09-15T17:28:29.656Z,2.90
2022-09-15T17:30:59.508Z,3.13
2022-09-15T17:33:27.595Z,3.50
2022-09-15T17:35:55.390Z,2.90
2022-09-15T17:38:22.609Z,3.42
2022-09-15T17:40:50.901Z,3.50
2022-09-15T17:43:19.896Z,4.05
2022-09-15T17:45:47.473Z,3.55
2022-09-15T17:48:14.462Z,4.65
2022-09-15T17:50:42.462Z,4.45
2022-09-15T17:53:15.341Z,4.05
2022-09-15T17:55:42.862Z,4.13
2022-09-15T17:58:10.327Z,3.60
2022-09-15T18:00:42.644Z,3.55
2022-09-15T18:03:35.058Z,4.43
2022-09-15T18:06:07.597Z,3.90
2022-09-15T18:08:36.279Z,3.35
2022-09-15T18:11:04.366Z,3.90
2022-09-15T18:13:31.675Z,3.88
2022-09-15T18:16:06.996Z,3.38
2022-09-15T18:18:34.407Z,3.67
2022-09-15T18:21:01.857Z,3.90
2022-09-15T18:23:29.738Z,3.60
2022-09-15T18:25:57.255Z,3.67
2022-09-15T18:28:24.246Z,3.55
2022-09-15T18:30:51.820Z,3.78
2022-09-15T18:33:23.017Z,3.72
2022-09-15T18:35:52.967Z,3.95
2022-09-15T18:38:20.390Z,3.92
2022-09-15T18:40:49.439Z,3.90
2022-09-15T18:43:17.277Z,4.07
2022-09-15T18:45:44.636Z,3.90
2022-09-15T18:48:13.100Z,3.90
2022-09-15T18:50:41.491Z,3.60
2022-09-15T18:53:09.119Z,3.80
2022-09-15T18:55:36.593Z,4.30
2022-09-15T18:58:03.656Z,3.78
2022-09-15T19:00:31.823Z,3.88
2022-09-15T19:03:00.876Z,3.25
2022-09-15T19:05:29.762Z,3.45
2022-09-15T19:07:57.826Z,3.70
2022-09-15T19:10:26.954Z,3.92
2022-09-15T19:12:54.335Z,3.42
2022-09-15T19:15:24.787Z,3.75
2022-09-15T19:17:51.836Z,4.45
2022-09-15T19:20:19.007Z,4.45
2022-09-15T19:22:47.534Z,4.90
2022-09-15T19:25:14.937Z,4.30
2022-09-15T19:27:41.984Z,4.70
2022-09-15T19:30:10.425Z,4.30
2022-09-15T19:32:38.400Z,4.18
2022-09-15T19:35:06.060Z,4.40
2022-09-15T19:37:37.415Z,4.60
2022-09-15T19:40:08.582Z,3.70
2022-09-15T19:42:38.256Z,4.25
2022-09-15T19:45:06.346Z,4.07
2022-09-15T19:47:33.682Z,4.30
2022-09-15T19:50:00.729Z,4.18
2022-09-15T19:52:28.516Z,4.13
2022-09-15T19:54:55.526Z,4.38
2022-09-15T19:57:22.743Z,4.57
2022-09-15T19:59:50.207Z,4.20
2022-09-15T20:02:17.509Z,4.10
2022-09-15T20:04:44.891Z,4.35
2022-09-15T20:07:12.709Z,4.10
2022-09-15T20:09:40.005Z,4.03
2022-09-15T20:12:07.217Z,4.07
2022-09-15T20:14:34.395Z,4.28
2022-09-15T20:17:01.873Z,4.00
2022-09-15T20:19:29.591Z,3.80
2022-09-15T20:21:56.705Z,4.30
2022-09-15T20:24:24.797Z,4.32
2022-09-15T20:26:52.996Z,4.38
2022-09-15T20:29:20.721Z,4.18
2022-09-15T20:31:48.237Z,4.47
2022-09-15T20:34:15.481Z,4.57
2022-09-15T20:36:43.592Z,4.72
2022-09-15T20:39:13.549Z,4.65
2022-09-15T20:41:45.005Z,5.50
2022-09-15T20:44:12.567Z,4.57
2022-09-15T20:46:40.226Z,4.40
2022-09-15T20:49:07.829Z,4.32
2022-09-15T20:51:34.865Z,4.45
2022-09-15T20:54:03.819Z,3.90
2022-09-15T20:56:32.472Z,4.40
2022-09-15T20:59:00.682Z,4.13
2022-09-15T21:01:31.800Z,3.85
2022-09-15T21:03:59.418Z,5.18
2022-09-15T21:06:27.927Z,4.10
2022-09-15T21:08:58.825Z,4.68
2022-09-15T21:11:27.649Z,4.18
2022-09-15T21:13:56.827Z,4.68
2022-09-15T21:16:26.346Z,4.32
2022-09-15T21:18:53.721Z,4.20
2022-09-15T21:21:26.387Z,4.25
2022-09-15T21:23:56.391Z,4.13
2022-09-15T21:26:26.255Z,4.15
2022-09-15T21:28:54.788Z,3.55
2022-09-15T21:31:34.875Z,4.22
2022-09-15T21:34:01.879Z,4.82
2022-09-15T21:36:32.223Z,4.60
2022-09-15T21:39:00.082Z,4.68
2022-09-15T21:41:30.058Z,4.22
2022-09-15T21:43:59.139Z,4.68
2022-09-15T21:46:29.375Z,4.15
2022-09-15T21:48:57.921Z,4.28
2022-09-15T21:51:26.421Z,4.13
2022-09-15T21:53:55.181Z,4.53
2022-09-15T21:56:23.241Z,4.47
2022-09-15T21:58:50.367Z,4.05
2022-09-15T22:01:20.184Z,3.85
2022-09-15T22:04:05.825Z,4.03
2022-09-15T22:06:40.387Z,4.05
2022-09-15T22:09:10.567Z,3.78
2022-09-15T22:11:37.843Z,4.10
2022-09-15T22:14:08.344Z,4.50
2022-09-15T22:16:39.871Z,4.63
2022-09-15T22:19:09.747Z,4.32
2022-09-15T22:21:42.143Z,3.92
2022-09-15T22:24:12.840Z,4.32
2022-09-15T22:26:40.675Z,4.32
2022-09-15T22:29:07.678Z,4.38
2022-09-15T22:31:35.493Z,4.10
2022-09-15T22:34:02.960Z,4.55
2022-09-15T22:36:31.231Z,4.25
2022-09-15T22:39:05.953Z,4.30
2022-09-15T22:41:36.011Z,3.83
2022-09-15T22:44:04.105Z,4.20
2022-09-15T22:46:31.361Z,3.58
2022-09-15T22:48:58.624Z,4.82
2022-09-15T22:51:25.577Z,3.92
2022-09-15T22:53:54.730Z,4.47
2022-09-15T22:56:21.823Z,4.50
2022-09-15T22:58:49.819Z,4.18
2022-09-15T23:01:26.537Z,4.03
2022-09-15T23:04:02.776Z,4.40
2022-09-15T23:06:33.515Z,4.50
2022-09-15T23:09:03.441Z,4.57
2022-09-15T23:11:33.291Z,4.68
2022-09-15T23:14:01.346Z,4.50
2022-09-15T23:16:29.666Z,4.20
2022-09-15T23:18:56.688Z,4.53
2022-09-15T23:21:23.736Z,4.50
2022-09-15T23:23:53.190Z,4.57
2022-09-15T23:26:22.706Z,4.18
2022-09-15T23:28:49.807Z,4.15
2022-09-15T23:31:17.493Z,4.22
2022-09-15T23:33:45.010Z,4.00
2022-09-15T23:36:14.986Z,4.22
2022-09-15T23:38:44.154Z,3.97
2022-09-15T23:41:12.346Z,4.05
2022-09-15T23:43:39.407Z,4.70
2022-09-15T23:46:07.182Z,4.05
2022-09-15T23:48:34.182Z,3.95
2022-09-15T23:51:01.986Z,3.88
2022-09-15T23:53:29.322Z,3.95
2022-09-15T23:55:56.597Z,3.88
2022-09-15T23:58:23.587Z,4.30
